Página principal
METAR-TAF:

METAR-TAF

Aeroportos :

Roma-Fiumicino, Itália

Aeroporto Internacional de Roma

latitude: 41-48N, longitude: 012-14E, altura: 2 m

Observação actual do tempo

O boletim foi feito há 36 minutos, às 23:20 UTC
Vento 2 kt de es-nordeste
Temperatura 22°C
Humidade 94%
Pressão 1015 hPa
Visibilidade 10 km ou mais
sem nuvens abaixo de 1500 metros e sem cumulonimbus

METAR: LIRF 182320Z 07002KT CAVOK 22/21 Q1015 NOSIG

Hora: 01:56 (23:56 UTC)

Previsão

O boletim foi feito há 56 minutos, às 23:00 UTC
Previsão válida de 19 às 00 UTC a 20 às 06 UTC
Vento 5 kt com direcção variável
Visibilidade 10 km ou mais
sem nuvens abaixo de 1500 metros e sem cumulonimbus
Temporariamente
de 19 às 01 UTC a 19 às 05 UTC
Visibilidade: 3000 m
neblina
Tornando-se
de 19 às 10 UTC a 19 às 12 UTC
Vento 10 kt de sudoeste
Tornando-se
de 19 às 18 UTC a 19 às 20 UTC
Vento 7 kt de su-sudeste

TAF: LIRF 182300Z 1900/2006 VRB05KT CAVOK TEMPO 1901/1905 3000 BR BECMG 1910/1912 22010KT BECMG 1918/1920 16007KT

Observações e previsões do tempo de mais de 4000 aeroportos (mensagens METAR e TAF).

As estações disponíveis são os pontos amarelos e vermelhos sobre o mapa.

Mova o rato sobre o mapa para ver o nome da estação.

Depois clique no ponto para visualizar as observações e previsões meteorológicas.

Para alterar o mapa : clique nos botões verdes com uma cruz preta para aumentar o zoom; no botão verde com uma pitada de zoom; ou nas setas verdes para mapas adjacentes.


METAR-TAF: